createdAt,value
2023-11-12T00:01:48.376Z,99956.03
2023-11-12T00:04:14.810Z,99961.78
2023-11-12T00:06:42.015Z,99957.38
2023-11-12T00:09:09.374Z,99958.81
2023-11-12T00:11:36.172Z,99957.34
2023-11-12T00:14:02.740Z,99957.34
2023-11-12T00:16:29.267Z,99947.25
2023-11-12T00:18:55.923Z,99950.09
2023-11-12T00:21:22.625Z,99950.84
2023-11-12T00:23:49.067Z,99950.09
2023-11-12T00:26:15.528Z,99944.38
2023-11-12T00:28:48.736Z,99947.91
2023-11-12T00:31:16.061Z,99954.41
2023-11-12T00:33:43.487Z,99952.91
2023-11-12T00:36:10.715Z,99952.91
2023-11-12T00:38:37.227Z,99950.03
2023-11-12T00:41:04.730Z,99947.09
2023-11-12T00:43:31.242Z,99950.72
2023-11-12T00:46:00.741Z,99949.22
2023-11-12T00:48:27.587Z,99950.66
2023-11-12T00:50:53.998Z,99954.25
2023-11-12T00:53:20.769Z,99963.50
2023-11-12T00:55:47.270Z,99960.00
2023-11-12T00:58:13.664Z,99964.25
2023-11-12T01:00:42.524Z,99964.25
2023-11-12T01:03:09.945Z,99970.00
2023-11-12T01:05:36.911Z,99968.53
2023-11-12T01:08:03.761Z,99968.53
2023-11-12T01:10:30.641Z,99970.66
2023-11-12T01:12:57.181Z,99967.00
2023-11-12T01:15:24.325Z,99974.13
2023-11-12T01:17:50.734Z,99969.88
2023-11-12T01:20:18.435Z,99980.59
2023-11-12T01:22:44.924Z,99974.13
2023-11-12T01:25:11.334Z,99974.13
2023-11-12T01:27:37.751Z,99979.13
2023-11-12T01:30:04.862Z,99977.00
2023-11-12T01:32:32.034Z,99981.34
2023-11-12T01:34:58.449Z,99978.41
2023-11-12T01:37:24.902Z,99977.06
2023-11-12T01:39:51.313Z,99980.03
2023-11-12T01:42:17.776Z,99978.56
2023-11-12T01:44:44.876Z,99975.72
2023-11-12T01:47:11.328Z,99977.94
2023-11-12T01:49:37.732Z,99975.81
2023-11-12T01:52:07.372Z,99972.19
2023-11-12T01:54:34.513Z,99974.41
2023-11-12T01:57:00.925Z,99970.81
2023-11-12T01:59:31.619Z,99968.69
2023-11-12T02:01:58.417Z,99970.13
2023-11-12T02:04:24.888Z,99962.94
2023-11-12T02:06:51.337Z,99961.44
2023-11-12T02:09:18.950Z,99960.00
2023-11-12T02:11:45.401Z,99962.84
2023-11-12T02:14:12.575Z,99960.00
2023-11-12T02:16:39.040Z,99958.50
2023-11-12T02:19:05.525Z,99958.50
2023-11-12T02:21:34.946Z,99952.03
2023-11-12T02:24:01.398Z,99958.50
2023-11-12T02:26:27.827Z,99950.56
2023-11-12T02:28:54.211Z,99961.31
2023-11-12T02:31:21.088Z,99961.31
2023-11-12T02:33:48.381Z,99958.47
2023-11-12T02:36:15.232Z,99965.59
2023-11-12T02:38:41.690Z,99962.72
2023-11-12T02:41:09.531Z,99968.47
2023-11-12T02:43:35.951Z,99959.09
2023-11-12T02:46:02.338Z,99969.09
2023-11-12T02:48:30.049Z,99965.50
2023-11-12T02:50:56.450Z,99971.25
2023-11-12T02:53:22.875Z,99969.78
2023-11-12T02:55:49.297Z,99968.38
2023-11-12T02:58:18.261Z,99970.44
2023-11-12T03:00:44.885Z,99958.22
2023-11-12T03:03:14.221Z,99953.94
2023-11-12T03:05:41.265Z,99961.09
2023-11-12T03:08:07.865Z,99958.22
2023-11-12T03:10:34.614Z,99966.13
2023-11-12T03:13:01.070Z,99966.78
2023-11-12T03:15:28.019Z,99961.75
2023-11-12T03:17:54.539Z,99966.03
2023-11-12T03:20:20.979Z,99962.44
2023-11-12T03:22:47.558Z,99963.81
2023-11-12T03:25:14.007Z,99968.19
2023-11-12T03:27:40.487Z,99968.09
2023-11-12T03:30:07.274Z,99970.28
2023-11-12T03:32:33.805Z,99963.81
2023-11-12T03:35:01.966Z,99965.22
2023-11-12T03:37:28.514Z,99963.81
2023-11-12T03:39:54.908Z,99963.81
2023-11-12T03:42:22.988Z,99973.97
2023-11-12T03:44:50.628Z,99974.72
2023-11-12T03:47:17.824Z,99977.69
2023-11-12T03:49:44.227Z,99975.63
2023-11-12T03:52:10.637Z,99976.34
2023-11-12T03:54:37.667Z,99977.81
2023-11-12T03:57:04.384Z,99984.31
2023-11-12T03:59:30.790Z,99978.56
2023-11-12T04:01:57.203Z,99976.41
2023-11-12T04:04:23.718Z,99979.28
2023-11-12T04:06:50.323Z,99985.75
2023-11-12T04:09:16.831Z,99980.03
2023-11-12T04:11:43.536Z,99980.75
2023-11-12T04:14:09.924Z,99980.03
2023-11-12T04:16:36.342Z,99984.34
2023-11-12T04:19:04.077Z,99993.72
2023-11-12T04:21:33.238Z,99988.72
2023-11-12T04:23:59.650Z,99976.50
2023-11-12T04:26:26.141Z,99978.69
2023-11-12T04:28:52.532Z,99981.63
2023-11-12T04:31:19.031Z,99978.03
2023-11-12T04:33:47.026Z,99980.91
2023-11-12T04:36:13.955Z,99986.63
2023-11-12T04:38:40.409Z,99978.03
2023-11-12T04:41:06.832Z,99981.63
2023-11-12T04:43:33.217Z,99983.13
2023-11-12T04:46:00.145Z,99983.13
2023-11-12T04:48:26.670Z,99985.97
2023-11-12T04:50:53.086Z,99990.31
2023-11-12T04:53:19.475Z,99990.31
2023-11-12T04:55:45.877Z,99990.31
2023-11-12T04:58:12.261Z,99990.31
2023-11-12T05:00:39.398Z,99991.81
2023-11-12T05:03:06.296Z,99998.94
2023-11-12T05:05:33.441Z,100002.53
2023-11-12T05:07:59.986Z,100011.91
2023-11-12T05:10:44.094Z,100001.88
2023-11-12T05:13:12.261Z,100000.47
2023-11-12T05:15:38.785Z,99996.13
2023-11-12T05:18:07.356Z,100000.47
2023-11-12T05:20:36.903Z,100001.97
2023-11-12T05:23:03.315Z,100013.47
2023-11-12T05:25:29.732Z,100013.47
2023-11-12T05:27:56.174Z,100008.47
2023-11-12T05:30:24.603Z,100020.56
2023-11-12T05:32:52.121Z,100018.47
2023-11-12T05:35:21.644Z,100013.47
2023-11-12T05:37:50.894Z,100014.19
2023-11-12T05:40:17.529Z,100014.94
2023-11-12T05:42:44.011Z,100020.69
2023-11-12T05:45:10.591Z,100022.16
2023-11-12T05:47:37.074Z,100016.41
2023-11-12T05:50:03.513Z,100016.41
2023-11-12T05:52:29.896Z,100036.59
2023-11-12T05:54:56.366Z,100030.84
2023-11-12T05:57:23.960Z,100036.59
2023-11-12T05:59:50.423Z,100039.47
2023-11-12T06:02:16.814Z,100042.34
2023-11-12T06:04:43.194Z,100043.06
2023-11-12T06:07:10.254Z,100040.19
2023-11-12T06:09:36.798Z,100045.22
2023-11-12T06:12:06.154Z,100042.34
2023-11-12T06:14:34.042Z,100049.53
2023-11-12T06:17:00.620Z,100056.78
2023-11-12T06:19:27.086Z,100062.53
2023-11-12T06:21:53.797Z,100059.66
2023-11-12T06:24:20.268Z,100058.25
2023-11-12T06:26:46.802Z,100056.78
2023-11-12T06:29:13.235Z,100069.72
2023-11-12T06:31:40.277Z,100061.13
2023-11-12T06:34:06.826Z,100062.53
2023-11-12T06:36:33.342Z,100059.66
2023-11-12T06:38:59.830Z,100057.50
2023-11-12T06:41:26.222Z,100070.47
2023-11-12T06:43:52.618Z,100059.06
2023-11-12T06:46:19.068Z,100061.19
2023-11-12T06:48:45.503Z,100068.56
2023-11-12T06:51:20.969Z,100080.44
2023-11-12T06:53:47.375Z,100087.44
2023-11-12T06:56:13.763Z,100084.78
2023-11-12T06:58:43.267Z,100085.06
2023-11-12T07:01:09.725Z,100087.53
2023-11-12T07:03:38.319Z,100081.44
2023-11-12T07:06:06.149Z,100083.66
2023-11-12T07:08:32.564Z,100090.66
2023-11-12T07:10:59.723Z,100089.97
2023-11-12T07:13:26.120Z,100091.16
2023-11-12T07:15:52.592Z,100079.97
2023-11-12T07:18:19.146Z,100088.84
2023-11-12T07:20:45.594Z,100092.53
2023-11-12T07:23:12.011Z,100096.28
2023-11-12T07:25:38.405Z,100097.88
2023-11-12T07:28:04.804Z,100102.28
2023-11-12T07:30:31.312Z,100102.38
2023-11-12T07:32:57.762Z,100104.56
2023-11-12T07:35:24.239Z,100103.91
2023-11-12T07:37:50.660Z,100107.59
2023-11-12T07:40:19.049Z,100114.81
2023-11-12T07:42:45.500Z,100102.03
2023-11-12T07:45:14.093Z,100102.75
2023-11-12T07:47:43.407Z,100110.72
2023-11-12T07:50:09.938Z,100115.13
2023-11-12T07:52:36.452Z,100116.63
2023-11-12T07:55:03.491Z,100110.13
2023-11-12T07:57:29.919Z,100110.88
2023-11-12T07:59:56.342Z,100110.19
2023-11-12T08:02:22.765Z,100117.16
2023-11-12T08:04:49.178Z,100120.09
2023-11-12T08:07:15.560Z,100112.03
2023-11-12T08:09:45.288Z,100115.59
2023-11-12T08:12:11.689Z,100115.47
2023-11-12T08:14:39.087Z,100119.44
2023-11-12T08:17:05.502Z,100120.09
2023-11-12T08:19:32.137Z,100121.44
2023-11-12T08:22:00.368Z,100116.69
2023-11-12T08:24:26.819Z,100110.41
2023-11-12T08:26:53.245Z,100117.19
2023-11-12T08:29:19.693Z,100116.75
2023-11-12T08:31:46.291Z,100114.44
2023-11-12T08:34:12.799Z,100117.78
2023-11-12T08:36:39.228Z,100121.63
2023-11-12T08:39:06.339Z,100118.25
2023-11-12T08:41:33.093Z,100126.31
2023-11-12T08:43:59.493Z,100121.38
2023-11-12T08:46:26.139Z,100124.34
2023-11-12T08:48:52.597Z,100130.91
2023-11-12T08:51:19.054Z,100133.84
2023-11-12T08:53:45.580Z,100130.97
2023-11-12T08:56:13.146Z,100134.66
2023-11-12T08:58:40.034Z,100140.41
2023-11-12T09:01:10.034Z,100128.28
2023-11-12T09:03:36.939Z,100135.47
2023-11-12T09:06:03.867Z,100130.56
2023-11-12T09:08:30.253Z,100144.81
2023-11-12T09:10:56.930Z,100135.91
2023-11-12T09:13:23.344Z,100139.50
2023-11-12T09:15:49.743Z,100146.31
2023-11-12T09:18:16.202Z,100152.22
2023-11-12T09:20:44.471Z,100149.34
2023-11-12T09:23:10.870Z,100159.41
2023-11-12T09:25:37.280Z,100156.56
2023-11-12T09:28:03.921Z,100163.69
2023-11-12T09:30:44.256Z,100159.41
2023-11-12T09:33:19.142Z,100165.16
2023-11-12T09:35:45.631Z,100163.75
2023-11-12T09:38:14.275Z,100166.63
2023-11-12T09:40:40.865Z,100164.19
2023-11-12T09:43:07.975Z,100166.78
2023-11-12T09:45:34.938Z,100160.31
2023-11-12T09:48:08.788Z,100161.88
2023-11-12T09:50:36.885Z,100157.94
2023-11-12T09:53:04.482Z,100161.28
2023-11-12T09:55:31.999Z,100156.53
2023-11-12T09:57:59.043Z,100166.13
2023-11-12T10:00:25.427Z,100152.63
2023-11-12T10:02:52.004Z,100157.06
2023-11-12T10:05:18.495Z,100157.06
2023-11-12T10:07:45.770Z,100159.25
2023-11-12T10:10:28.027Z,100160.75
2023-11-12T10:12:54.836Z,100153.69
2023-11-12T10:15:27.826Z,100158.78
2023-11-12T10:17:56.889Z,100160.16
2023-11-12T10:20:28.693Z,100153.69
2023-11-12T10:22:55.126Z,100149.41
2023-11-12T10:25:41.226Z,100150.91
2023-11-12T10:28:08.868Z,100160.97
2023-11-12T10:30:35.798Z,100154.56
2023-11-12T10:33:14.401Z,100159.59
2023-11-12T10:35:40.787Z,100159.59
2023-11-12T10:38:07.542Z,100155.31
2023-11-12T10:40:33.942Z,100163.19
2023-11-12T10:43:10.520Z,100160.84
2023-11-12T10:45:37.099Z,100173.97
2023-11-12T10:48:05.399Z,100164.84
2023-11-12T10:50:31.959Z,100161.31
2023-11-12T10:52:58.794Z,100169.53
2023-11-12T10:55:25.571Z,100169.09
2023-11-12T10:57:55.748Z,100174.66
2023-11-12T11:00:23.413Z,100171.72
2023-11-12T11:02:50.185Z,100168.75
2023-11-12T11:05:17.839Z,100169.50
2023-11-12T11:07:44.789Z,100174.50
2023-11-12T11:10:12.162Z,100176.56
2023-11-12T11:12:38.654Z,100171.53
2023-11-12T11:15:23.798Z,100182.28
2023-11-12T11:17:50.272Z,100177.22
2023-11-12T11:20:17.767Z,100175.69
2023-11-12T11:22:45.653Z,100172.44
2023-11-12T11:25:22.906Z,100173.88
2023-11-12T11:27:51.342Z,100174.13
2023-11-12T11:30:17.741Z,100178.53
2023-11-12T11:32:53.311Z,100172.91
2023-11-12T11:35:20.098Z,100178.03
2023-11-12T11:38:08.544Z,100180.97
2023-11-12T11:40:35.980Z,100178.75
2023-11-12T11:43:21.180Z,100174.34
2023-11-12T11:46:06.473Z,100181.34
2023-11-12T11:48:32.918Z,100176.25
2023-11-12T11:51:00.745Z,100175.22
2023-11-12T11:53:28.966Z,100174.34
2023-11-12T11:55:58.615Z,100180.78
2023-11-12T11:58:25.553Z,100173.09
2023-11-12T12:00:58.945Z,100178.31
2023-11-12T12:03:29.463Z,100182.59
2023-11-12T12:05:56.561Z,100179.53
2023-11-12T12:08:22.993Z,100183.19
2023-11-12T12:10:49.499Z,100184.81
2023-11-12T12:13:16.358Z,100183.19
2023-11-12T12:15:46.102Z,100186.72
2023-11-12T12:18:19.538Z,100188.03
2023-11-12T12:20:45.939Z,100194.69
2023-11-12T12:23:12.442Z,100192.69
2023-11-12T12:25:51.789Z,100192.06
2023-11-12T12:28:21.356Z,100197.94
2023-11-12T12:30:51.470Z,100199.44
2023-11-12T12:33:18.729Z,100190.72
2023-11-12T12:35:45.126Z,100187.78
2023-11-12T12:38:13.424Z,100193.53
2023-11-12T12:40:39.890Z,100195.56
2023-11-12T12:43:08.070Z,100193.44
2023-11-12T12:45:35.646Z,100194.16
2023-11-12T12:48:10.861Z,100192.78
2023-11-12T12:50:37.531Z,100197.13
2023-11-12T12:53:14.222Z,100195.00
2023-11-12T12:55:41.690Z,100189.19
2023-11-12T12:58:08.220Z,100191.28
2023-11-12T13:00:37.062Z,100198.53
2023-11-12T13:03:03.928Z,100196.31
2023-11-12T13:05:30.480Z,100197.88
2023-11-12T13:07:56.923Z,100192.19
2023-11-12T13:10:23.921Z,100185.72
2023-11-12T13:12:51.675Z,100188.50
2023-11-12T13:15:18.228Z,100187.13
2023-11-12T13:17:44.733Z,100183.53
2023-11-12T13:20:14.669Z,100190.66
2023-11-12T13:22:44.929Z,100183.44
2023-11-12T13:25:15.286Z,100183.53
2023-11-12T13:27:45.529Z,100189.09
2023-11-12T13:30:13.137Z,100195.75
2023-11-12T13:32:41.371Z,100187.78
2023-11-12T13:35:09.135Z,100190.91
2023-11-12T13:37:36.055Z,100193.69
2023-11-12T13:40:07.109Z,100193.69
2023-11-12T13:42:36.721Z,100205.91
2023-11-12T13:45:04.832Z,100203.69
2023-11-12T13:47:31.252Z,100205.16
2023-11-12T13:49:57.736Z,100208.78
2023-11-12T13:52:24.151Z,100206.63
2023-11-12T13:54:53.553Z,100205.16
2023-11-12T13:57:20.586Z,100205.16
2023-11-12T13:59:50.738Z,100207.38
2023-11-12T14:02:17.854Z,100213.88
2023-11-12T14:04:45.233Z,100208.13
2023-11-12T14:07:11.748Z,100207.44
2023-11-12T14:09:38.241Z,100206.63
2023-11-12T14:12:08.179Z,100215.25
2023-11-12T14:14:34.944Z,100212.38
2023-11-12T14:17:05.912Z,100211.66
2023-11-12T14:19:35.273Z,100205.16
2023-11-12T14:22:03.087Z,100216.66
2023-11-12T14:24:29.499Z,100213.13
2023-11-12T14:26:57.190Z,100205.34
2023-11-12T14:29:23.863Z,100206.88
2023-11-12T14:31:50.314Z,100211.81
2023-11-12T14:34:16.860Z,100211.28
2023-11-12T14:36:43.848Z,100210.66
2023-11-12T14:39:11.775Z,100204.19
2023-11-12T14:41:40.545Z,100205.63
2023-11-12T14:44:10.040Z,100196.22
2023-11-12T14:46:37.400Z,100202.94
2023-11-12T14:49:04.615Z,100211.53
2023-11-12T14:51:31.551Z,100207.94
2023-11-12T14:54:04.199Z,100211.47
2023-11-12T14:56:32.608Z,100217.84
2023-11-12T14:58:59.110Z,100212.88
2023-11-12T15:01:25.895Z,100225.09
2023-11-12T15:03:52.358Z,100219.34
2023-11-12T15:06:18.775Z,100227.31
2023-11-12T15:08:45.171Z,100228.03
2023-11-12T15:11:14.250Z,100225.19
2023-11-12T15:13:41.954Z,100225.19
2023-11-12T15:16:08.517Z,100223.03
2023-11-12T15:18:34.966Z,100228.78
2023-11-12T15:21:03.356Z,100233.78
2023-11-12T15:23:32.744Z,100234.53
2023-11-12T15:25:59.320Z,100234.53
2023-11-12T15:28:29.318Z,100237.31
2023-11-12T15:30:56.014Z,100247.41
2023-11-12T15:33:22.912Z,100250.28
2023-11-12T15:35:50.226Z,100237.41
2023-11-12T15:38:16.847Z,100240.28
2023-11-12T15:40:45.387Z,100249.72
2023-11-12T15:43:11.806Z,100243.13
2023-11-12T15:45:38.234Z,100243.25
2023-11-12T15:48:04.805Z,100241.09
2023-11-12T15:50:31.263Z,100257.50
2023-11-12T15:52:58.545Z,100245.66
2023-11-12T15:55:25.156Z,100252.03
2023-11-12T15:57:51.652Z,100250.84
2023-11-12T16:00:20.813Z,100252.56
2023-11-12T16:02:47.780Z,100248.53
2023-11-12T16:05:14.469Z,100255.81
2023-11-12T16:07:41.227Z,100252.94
2023-11-12T16:10:08.168Z,100264.44
2023-11-12T16:12:34.655Z,100272.50
2023-11-12T16:15:05.749Z,100262.97
2023-11-12T16:17:32.706Z,100265.91
2023-11-12T16:20:00.095Z,100276.25
2023-11-12T16:22:26.493Z,100271.22
2023-11-12T16:24:53.151Z,100279.06
2023-11-12T16:27:22.272Z,100282.00
2023-11-12T16:29:48.934Z,100282.94
2023-11-12T16:32:15.317Z,100279.19
2023-11-12T16:34:44.684Z,100286.56
2023-11-12T16:37:11.072Z,100282.13
2023-11-12T16:39:49.450Z,100285.16
2023-11-12T16:42:16.103Z,100290.66
2023-11-12T16:44:43.020Z,100291.56
2023-11-12T16:47:09.569Z,100280.75
2023-11-12T16:49:36.840Z,100286.41
2023-11-12T16:52:03.771Z,100283.63
2023-11-12T16:54:30.215Z,100284.00
2023-11-12T16:56:58.891Z,100279.34
2023-11-12T16:59:25.915Z,100292.75
2023-11-12T17:01:52.397Z,100289.06
2023-11-12T17:04:18.892Z,100294.06
2023-11-12T17:06:46.746Z,100299.97
2023-11-12T17:09:14.314Z,100292.34
2023-11-12T17:11:40.712Z,100306.63
2023-11-12T17:14:08.561Z,100305.91
2023-11-12T17:16:39.013Z,100312.78
2023-11-12T17:19:05.568Z,100309.66
2023-11-12T17:21:33.937Z,100301.44
2023-11-12T17:24:01.808Z,100295.84
2023-11-12T17:26:29.692Z,100302.38
2023-11-12T17:28:56.339Z,100304.69
2023-11-12T17:31:22.777Z,100300.28
2023-11-12T17:33:50.077Z,100301.22
2023-11-12T17:36:16.506Z,100307.81
2023-11-12T17:38:44.058Z,100304.03
2023-11-12T17:41:10.454Z,100301.25
2023-11-12T17:43:36.877Z,100306.41
2023-11-12T17:46:04.218Z,100308.78
2023-11-12T17:48:30.754Z,100310.13
2023-11-12T17:50:58.683Z,100310.25
2023-11-12T17:53:25.281Z,100318.59
2023-11-12T17:55:51.689Z,100318.75
2023-11-12T17:58:18.154Z,100322.22
2023-11-12T18:00:44.629Z,100327.69
2023-11-12T18:03:11.037Z,100326.28
2023-11-12T18:05:37.427Z,100329.09
2023-11-12T18:08:03.862Z,100330.28
2023-11-12T18:10:30.591Z,100327.75
2023-11-12T18:12:59.472Z,100328.53
2023-11-12T18:15:26.029Z,100320.16
2023-11-12T18:17:52.509Z,100330.84
2023-11-12T18:20:19.004Z,100325.47
2023-11-12T18:22:45.408Z,100326.91
2023-11-12T18:25:12.476Z,100338.66
2023-11-12T18:27:41.738Z,100330.34
2023-11-12T18:30:08.346Z,100328.28
2023-11-12T18:32:37.147Z,100334.78
2023-11-12T18:35:03.886Z,100335.94
2023-11-12T18:37:32.533Z,100338.97
2023-11-12T18:39:59.008Z,100335.97
2023-11-12T18:42:26.773Z,100335.72
2023-11-12T18:44:53.191Z,100337.19
2023-11-12T18:47:19.575Z,100331.44
2023-11-12T18:49:48.201Z,100328.66
2023-11-12T18:52:15.137Z,100340.72
2023-11-12T18:54:42.679Z,100332.59
2023-11-12T18:57:09.084Z,100335.38
2023-11-12T18:59:35.471Z,100329.63
2023-11-12T19:02:02.353Z,100326.59
2023-11-12T19:04:31.090Z,100331.78
2023-11-12T19:06:57.585Z,100333.16
2023-11-12T19:09:24.171Z,100338.19
2023-11-12T19:11:50.796Z,100337.47
2023-11-12T19:14:18.389Z,100335.00
2023-11-12T19:16:45.007Z,100324.66
2023-11-12T19:19:12.270Z,100327.47
2023-11-12T19:21:40.900Z,100320.16
2023-11-12T19:24:08.578Z,100324.59
2023-11-12T19:26:36.085Z,100334.91
2023-11-12T19:29:03.771Z,100338.03
2023-11-12T19:31:33.567Z,100340.25
2023-11-12T19:34:00.800Z,100339.56
2023-11-12T19:36:27.253Z,100341.94
2023-11-12T19:38:53.744Z,100331.25
2023-11-12T19:41:20.222Z,100348.59
2023-11-12T19:43:48.498Z,100340.97
2023-11-12T19:46:14.973Z,100346.38
2023-11-12T19:48:41.840Z,100356.28
2023-11-12T19:51:08.308Z,100344.72
2023-11-12T19:53:34.698Z,100351.88
2023-11-12T19:56:01.206Z,100350.38
2023-11-12T19:58:27.720Z,100351.72
2023-11-12T20:00:55.737Z,100341.63
2023-11-12T20:03:22.773Z,100341.69
2023-11-12T20:05:49.269Z,100357.47
2023-11-12T20:08:15.679Z,100352.34
2023-11-12T20:10:43.485Z,100357.47
2023-11-12T20:13:09.961Z,100358.88
2023-11-12T20:15:37.563Z,100354.50
2023-11-12T20:18:04.152Z,100358.09
2023-11-12T20:20:30.987Z,100364.53
2023-11-12T20:22:58.523Z,100358.78
2023-11-12T20:25:26.264Z,100361.56
2023-11-12T20:27:53.982Z,100365.97
2023-11-12T20:30:20.984Z,100375.00
2023-11-12T20:32:47.490Z,100375.47
2023-11-12T20:35:15.637Z,100373.91
2023-11-12T20:37:44.441Z,100377.22
2023-11-12T20:40:11.288Z,100375.03
2023-11-12T20:42:37.793Z,100383.69
2023-11-12T20:45:05.536Z,100380.44
2023-11-12T20:47:31.957Z,100389.22
2023-11-12T20:49:58.392Z,100386.03
2023-11-12T20:52:26.121Z,100392.53
2023-11-12T20:54:52.572Z,100393.78
2023-11-12T20:57:19.029Z,100390.91
2023-11-12T20:59:46.875Z,100389.59
2023-11-12T21:02:21.987Z,100393.72
2023-11-12T21:04:51.564Z,100391.94
2023-11-12T21:07:20.299Z,100392.75
2023-11-12T21:09:50.151Z,100397.50
2023-11-12T21:12:16.603Z,100399.47
2023-11-12T21:14:43.002Z,100388.63
2023-11-12T21:17:09.457Z,100392.91
2023-11-12T21:19:35.863Z,100398.50
2023-11-12T21:22:02.333Z,100389.06
2023-11-12T21:24:28.978Z,100395.53
2023-11-12T21:26:55.428Z,100396.16
2023-11-12T21:29:24.523Z,100402.53
2023-11-12T21:31:51.847Z,100400.22
2023-11-12T21:34:18.266Z,100405.34
2023-11-12T21:36:44.698Z,100408.22
2023-11-12T21:39:12.540Z,100400.22
2023-11-12T21:41:39.202Z,100408.78
2023-11-12T21:44:08.601Z,100407.31
2023-11-12T21:46:35.604Z,100409.47
2023-11-12T21:49:02.140Z,100407.88
2023-11-12T21:51:28.606Z,100413.63
2023-11-12T21:53:55.032Z,100413.63
2023-11-12T21:56:21.406Z,100409.94
2023-11-12T21:58:48.611Z,100410.69
2023-11-12T22:01:15.047Z,100407.75
2023-11-12T22:03:41.610Z,100404.78
2023-11-12T22:06:12.571Z,100406.25
2023-11-12T22:08:39.008Z,100407.56
2023-11-12T22:11:06.319Z,100411.81
2023-11-12T22:13:32.856Z,100415.38
2023-11-12T22:16:00.232Z,100413.16
2023-11-12T22:18:26.726Z,100423.19
2023-11-12T22:20:53.587Z,100428.19
2023-11-12T22:23:19.988Z,100413.72
2023-11-12T22:25:46.406Z,100409.47
2023-11-12T22:28:12.853Z,100419.47
2023-11-12T22:30:39.358Z,100417.28
2023-11-12T22:33:05.864Z,100414.41
2023-11-12T22:35:32.301Z,100422.28
2023-11-12T22:37:58.721Z,100412.09
2023-11-12T22:40:25.732Z,100421.44
2023-11-12T22:42:53.079Z,100420.63
2023-11-12T22:45:19.726Z,100427.13
2023-11-12T22:47:48.023Z,100426.38
2023-11-12T22:50:17.925Z,100429.91
2023-11-12T22:52:44.381Z,100434.16
2023-11-12T22:55:13.860Z,100434.09
2023-11-12T22:57:41.108Z,100441.97
2023-11-12T23:00:36.815Z,100439.75
2023-11-12T23:03:10.130Z,100439.00
2023-11-12T23:05:37.453Z,100437.56
2023-11-12T23:08:05.053Z,100439.59
2023-11-12T23:10:31.474Z,100448.22
2023-11-12T23:12:57.914Z,100451.09
2023-11-12T23:15:24.416Z,100442.38
2023-11-12T23:17:50.895Z,100441.66
2023-11-12T23:20:17.317Z,100446.63
2023-11-12T23:22:43.722Z,100442.38
2023-11-12T23:25:12.229Z,100452.38
2023-11-12T23:27:39.242Z,100451.66
2023-11-12T23:30:06.536Z,100453.78
2023-11-12T23:32:33.411Z,100447.97
2023-11-12T23:34:59.863Z,100450.84
2023-11-12T23:37:26.291Z,100450.75
2023-11-12T23:39:52.718Z,100460.09
2023-11-12T23:42:19.102Z,100465.03
2023-11-12T23:44:45.464Z,100462.16
2023-11-12T23:47:11.939Z,100453.53
2023-11-12T23:49:38.468Z,100463.56
2023-11-12T23:52:04.940Z,100472.19
2023-11-12T23:54:31.362Z,100487.28
2023-11-12T23:56:57.930Z,100483.66
2023-11-12T23:59:24.326Z,100485.03
